createdAt,value
2019-05-20T00:00:41.326Z,52.40
2019-05-20T00:03:10.852Z,13.43
2019-05-20T00:05:41.824Z,55.93
2019-05-20T00:08:11.429Z,25.63
2019-05-20T00:10:42.511Z,76.63
2019-05-20T00:13:13.548Z,81.67
2019-05-20T00:15:43.016Z,58.97
2019-05-20T00:18:12.589Z,72.93
2019-05-20T00:20:42.239Z,30.73
2019-05-20T00:23:11.749Z,55.87
2019-05-20T00:25:41.251Z,30.10
2019-05-20T00:28:10.762Z,13.70
2019-05-20T00:30:41.551Z,12.80
2019-05-20T00:33:11.067Z,11.97
2019-05-20T00:35:42.027Z,38.33
2019-05-20T00:38:11.538Z,13.00
2019-05-20T00:40:42.428Z,39.83
2019-05-20T00:43:11.878Z,12.13
2019-05-20T00:45:42.860Z,12.97
2019-05-20T00:48:12.377Z,13.50
2019-05-20T00:50:41.855Z,22.97
2019-05-20T00:53:11.387Z,16.13
2019-05-20T00:55:42.270Z,20.00
2019-05-20T00:58:11.788Z,13.50
2019-05-20T01:00:42.774Z,12.87
2019-05-20T01:03:12.399Z,20.93
2019-05-20T01:05:41.842Z,80.20
2019-05-20T01:08:11.301Z,16.00
2019-05-20T01:10:42.194Z,16.57
2019-05-20T01:13:11.706Z,21.20
2019-05-20T01:15:41.195Z,24.43
2019-05-20T01:18:10.816Z,25.07
2019-05-20T01:20:40.335Z,26.57
2019-05-20T01:23:09.821Z,17.20
2019-05-20T01:25:40.701Z,11.83
2019-05-20T01:28:10.217Z,33.97
2019-05-20T01:30:39.696Z,18.00
2019-05-20T01:33:13.684Z,15.23
2019-05-20T01:35:41.723Z,11.93
2019-05-20T01:38:11.242Z,14.20
2019-05-20T01:40:40.671Z,13.70
2019-05-20T01:43:10.180Z,13.90
2019-05-20T01:45:39.584Z,18.33
2019-05-20T01:48:09.024Z,18.60
2019-05-20T01:50:38.513Z,21.93
2019-05-20T01:53:08.019Z,19.80
2019-05-20T01:55:39.001Z,17.50
2019-05-20T01:58:08.444Z,24.20
2019-05-20T02:00:37.936Z,17.80
2019-05-20T02:03:07.456Z,20.40
2019-05-20T02:05:36.944Z,16.47
2019-05-20T02:08:06.465Z,19.37
2019-05-20T02:10:35.949Z,20.00
2019-05-20T02:13:05.469Z,18.97
2019-05-20T02:15:41.015Z,20.60
2019-05-20T02:18:10.539Z,19.70
2019-05-20T02:20:41.326Z,22.07
2019-05-20T02:23:14.909Z,22.73
2019-05-20T02:25:46.965Z,22.57
2019-05-20T02:28:16.835Z,19.13
2019-05-20T02:30:47.733Z,16.33
2019-05-20T02:33:17.177Z,18.37
2019-05-20T02:35:46.590Z,19.20
2019-05-20T02:38:16.030Z,28.23
2019-05-20T02:40:45.507Z,16.47
2019-05-20T02:43:14.955Z,15.30
2019-05-20T02:45:45.732Z,15.90
2019-05-20T02:48:15.179Z,16.60
2019-05-20T02:50:44.592Z,21.13
2019-05-20T02:53:14.042Z,16.80
2019-05-20T02:55:46.047Z,17.87
2019-05-20T02:58:15.474Z,24.03
2019-05-20T03:00:44.931Z,29.00
2019-05-20T03:03:14.385Z,19.23
2019-05-20T03:05:45.340Z,17.13
2019-05-20T03:08:14.788Z,17.77
2019-05-20T03:10:44.189Z,23.50
2019-05-20T03:13:13.654Z,17.60
2019-05-20T03:15:44.428Z,16.67
2019-05-20T03:18:13.884Z,19.27
2019-05-20T03:20:43.292Z,21.93
2019-05-20T03:23:12.742Z,17.03
2019-05-20T03:25:43.890Z,17.80
2019-05-20T03:28:13.408Z,17.93
2019-05-20T03:30:43.481Z,16.33
2019-05-20T03:33:13.058Z,19.33
2019-05-20T03:35:42.589Z,15.80
2019-05-20T03:38:12.038Z,17.80
2019-05-20T03:40:41.448Z,17.13
2019-05-20T03:43:10.901Z,16.50
2019-05-20T03:45:41.586Z,17.70
2019-05-20T03:48:11.039Z,20.90
2019-05-20T03:50:40.531Z,23.20
2019-05-20T03:53:09.976Z,23.63
2019-05-20T03:55:39.396Z,20.40
2019-05-20T03:58:12.969Z,17.03
2019-05-20T04:00:45.819Z,32.33
2019-05-20T04:03:15.491Z,20.20
2019-05-20T04:05:46.471Z,26.40
2019-05-20T04:08:15.938Z,17.33
2019-05-20T04:10:46.742Z,15.90
2019-05-20T04:13:16.188Z,16.17
2019-05-20T04:15:45.737Z,22.20
2019-05-20T04:18:15.206Z,15.63
2019-05-20T04:20:45.933Z,18.70
2019-05-20T04:23:15.356Z,17.77
2019-05-20T04:25:46.192Z,21.80
2019-05-20T04:28:15.601Z,20.17
2019-05-20T04:30:46.418Z,18.23
2019-05-20T04:33:15.838Z,16.60
2019-05-20T04:35:49.647Z,15.40
2019-05-20T04:38:17.868Z,21.00
2019-05-20T04:40:47.318Z,17.73
2019-05-20T04:43:16.823Z,18.67
2019-05-20T04:45:46.283Z,20.93
2019-05-20T04:48:15.761Z,18.17
2019-05-20T04:50:46.504Z,17.10
2019-05-20T04:53:16.068Z,20.83
2019-05-20T04:55:46.056Z,19.60
2019-05-20T04:58:15.481Z,17.00
2019-05-20T05:00:51.197Z,16.23
2019-05-20T05:03:20.748Z,21.67
2019-05-20T05:05:50.584Z,18.80
2019-05-20T05:08:20.632Z,19.07
2019-05-20T05:10:50.151Z,17.40
2019-05-20T05:13:19.639Z,18.93
2019-05-20T05:15:49.090Z,21.83
2019-05-20T05:18:18.507Z,22.13
2019-05-20T05:20:49.571Z,16.00
2019-05-20T05:23:19.089Z,24.40
2019-05-20T05:25:48.621Z,19.00
2019-05-20T05:28:18.053Z,20.33
2019-05-20T05:30:47.832Z,20.43
2019-05-20T05:33:17.193Z,16.40
2019-05-20T05:35:53.233Z,16.67
2019-05-20T05:38:18.988Z,18.57
2019-05-20T05:40:48.438Z,19.50
2019-05-20T05:43:17.850Z,16.43
2019-05-20T05:45:48.688Z,17.33
2019-05-20T05:48:18.089Z,19.43
2019-05-20T05:50:47.546Z,18.27
2019-05-20T05:53:16.954Z,18.67
2019-05-20T05:55:46.414Z,16.10
2019-05-20T05:58:15.832Z,18.13
2019-05-20T06:00:45.275Z,16.97
2019-05-20T06:03:14.706Z,17.13
2019-05-20T06:05:44.145Z,15.40
2019-05-20T06:08:13.594Z,13.23
2019-05-20T06:10:44.603Z,14.50
2019-05-20T06:13:14.044Z,14.57
2019-05-20T06:15:44.852Z,12.57
2019-05-20T06:18:14.268Z,14.13
2019-05-20T06:20:43.723Z,12.73
2019-05-20T06:23:13.144Z,14.70
2019-05-20T06:25:42.603Z,12.27
2019-05-20T06:28:12.028Z,10.50
2019-05-20T06:30:43.699Z,11.30
2019-05-20T06:33:13.115Z,12.43
2019-05-20T06:35:42.576Z,12.37
2019-05-20T06:38:13.663Z,13.70
2019-05-20T06:40:43.119Z,11.90
2019-05-20T06:43:12.526Z,12.50
2019-05-20T06:45:42.368Z,13.17
2019-05-20T06:48:11.777Z,14.10
2019-05-20T06:50:41.253Z,13.67
2019-05-20T06:53:10.712Z,12.73
2019-05-20T06:55:41.545Z,12.93
2019-05-20T06:58:10.959Z,12.13
2019-05-20T07:00:41.779Z,11.40
2019-05-20T07:03:11.192Z,12.93
2019-05-20T07:05:40.716Z,11.20
2019-05-20T07:08:10.201Z,10.60
2019-05-20T07:10:41.124Z,12.47
2019-05-20T07:13:10.530Z,11.17
2019-05-20T07:15:41.356Z,10.40
2019-05-20T07:18:10.809Z,12.10
2019-05-20T07:20:40.286Z,11.57
2019-05-20T07:23:09.696Z,9.63
2019-05-20T07:25:40.619Z,10.63
2019-05-20T07:28:10.102Z,10.07
2019-05-20T07:30:40.916Z,9.63
2019-05-20T07:33:10.458Z,9.50
2019-05-20T07:35:41.555Z,12.00
2019-05-20T07:38:11.044Z,11.33
2019-05-20T07:40:41.855Z,9.17
2019-05-20T07:43:11.340Z,11.00
2019-05-20T07:45:40.867Z,10.40
2019-05-20T07:48:10.303Z,11.73
2019-05-20T07:50:39.935Z,10.07
2019-05-20T07:53:09.412Z,11.90
2019-05-20T07:55:42.308Z,11.70
2019-05-20T07:58:11.741Z,12.23
2019-05-20T08:00:41.160Z,11.90
2019-05-20T08:03:10.691Z,12.10
2019-05-20T08:05:40.110Z,12.47
2019-05-20T08:08:09.619Z,11.63
2019-05-20T08:10:40.400Z,11.80
2019-05-20T08:13:10.128Z,11.27
2019-05-20T08:15:40.837Z,12.50
2019-05-20T08:18:10.263Z,12.60
2019-05-20T08:20:39.745Z,11.50
2019-05-20T08:23:10.824Z,12.27
2019-05-20T08:25:40.312Z,11.50
2019-05-20T08:28:09.755Z,12.07
2019-05-20T08:30:39.310Z,11.67
2019-05-20T08:33:08.784Z,12.00
2019-05-20T08:35:38.469Z,11.07
2019-05-20T08:38:08.427Z,12.10
2019-05-20T08:40:37.851Z,11.93
2019-05-20T08:43:07.296Z,12.40
2019-05-20T08:45:36.710Z,12.47
2019-05-20T08:48:06.230Z,11.03
2019-05-20T08:50:37.010Z,12.47
2019-05-20T08:53:06.483Z,11.90
2019-05-20T08:55:37.174Z,13.40
2019-05-20T08:58:06.619Z,13.10
2019-05-20T09:00:37.469Z,13.10
2019-05-20T09:03:07.089Z,12.93
2019-05-20T09:05:38.008Z,15.30
2019-05-20T09:08:07.487Z,14.87
2019-05-20T09:10:39.579Z,15.30
2019-05-20T09:13:09.398Z,14.70
2019-05-20T09:15:40.128Z,16.23
2019-05-20T09:18:09.652Z,15.50
2019-05-20T09:20:40.465Z,17.47
2019-05-20T09:23:11.468Z,15.90
2019-05-20T09:25:42.149Z,15.07
2019-05-20T09:28:11.673Z,16.07
2019-05-20T09:30:42.711Z,15.60
2019-05-20T09:33:12.223Z,17.40
2019-05-20T09:35:42.073Z,17.30
2019-05-20T09:38:20.370Z,18.27
2019-05-20T09:40:45.487Z,16.70
2019-05-20T09:43:15.005Z,15.80
2019-05-20T09:45:45.796Z,17.10
2019-05-20T09:48:15.237Z,17.47
2019-05-20T09:50:44.681Z,17.30
2019-05-20T09:53:14.090Z,16.90
2019-05-20T09:55:44.884Z,15.93
2019-05-20T09:58:14.410Z,18.63
2019-05-20T10:00:44.059Z,16.50
2019-05-20T10:03:13.510Z,16.27
2019-05-20T10:05:44.304Z,17.00
2019-05-20T10:08:13.751Z,18.37
2019-05-20T10:10:43.164Z,19.50
2019-05-20T10:13:12.648Z,19.60
2019-05-20T10:15:43.545Z,18.87
2019-05-20T10:18:13.024Z,19.70
2019-05-20T10:20:42.506Z,16.23
2019-05-20T10:23:15.655Z,19.80
2019-05-20T10:25:43.066Z,18.80
2019-05-20T10:28:12.521Z,16.07
2019-05-20T10:30:43.325Z,18.23
2019-05-20T10:33:12.848Z,17.53
2019-05-20T10:35:43.524Z,16.50
2019-05-20T10:38:12.968Z,16.03
2019-05-20T10:40:43.756Z,15.20
2019-05-20T10:43:13.282Z,17.60
2019-05-20T10:45:42.691Z,17.20
2019-05-20T10:48:12.204Z,16.07
2019-05-20T10:50:42.894Z,16.50
2019-05-20T10:53:12.360Z,16.30
2019-05-20T10:55:43.059Z,13.10
2019-05-20T10:58:12.512Z,15.30
2019-05-20T11:01:00.259Z,13.23
2019-05-20T11:03:14.618Z,13.37
2019-05-20T11:05:44.099Z,13.43
2019-05-20T11:08:13.553Z,12.63
2019-05-20T11:10:44.339Z,11.00
2019-05-20T11:13:15.336Z,12.20
2019-05-20T11:15:44.897Z,14.77
2019-05-20T11:18:14.724Z,12.67
2019-05-20T11:20:45.404Z,13.60
2019-05-20T11:23:16.395Z,11.77
2019-05-20T11:25:47.201Z,15.13
2019-05-20T11:28:16.653Z,15.00
2019-05-20T11:30:47.467Z,15.03
2019-05-20T11:33:16.987Z,15.33
2019-05-20T11:35:46.479Z,16.30
2019-05-20T11:38:15.950Z,15.57
2019-05-20T11:40:46.844Z,13.20
2019-05-20T11:43:16.359Z,10.67
2019-05-20T11:45:47.153Z,13.90
2019-05-20T11:48:16.572Z,14.27
2019-05-20T11:50:46.029Z,12.00
2019-05-20T11:53:16.714Z,14.73
2019-05-20T11:55:46.159Z,13.67
2019-05-20T11:58:16.983Z,12.03
2019-05-20T12:00:47.868Z,14.97
2019-05-20T12:03:17.348Z,14.90
2019-05-20T12:05:48.105Z,15.80
2019-05-20T12:08:17.512Z,12.57
2019-05-20T12:10:48.218Z,15.20
2019-05-20T12:13:17.643Z,16.23
2019-05-20T12:15:47.155Z,13.47
2019-05-20T12:18:16.640Z,15.77
2019-05-20T12:20:46.161Z,14.17
2019-05-20T12:23:15.646Z,13.70
2019-05-20T12:25:46.663Z,14.87
2019-05-20T12:28:16.844Z,15.37
2019-05-20T12:30:46.369Z,15.03
2019-05-20T12:33:19.111Z,12.07
2019-05-20T12:35:48.576Z,16.33
2019-05-20T12:38:18.072Z,14.50
2019-05-20T12:40:48.778Z,13.00
2019-05-20T12:43:18.775Z,16.50
2019-05-20T12:45:48.291Z,17.43
2019-05-20T12:48:17.780Z,13.70
2019-05-20T12:50:48.694Z,15.37
2019-05-20T12:53:18.186Z,15.33
2019-05-20T12:55:47.639Z,15.00
2019-05-20T12:58:17.836Z,14.73
2019-05-20T13:00:48.835Z,14.40
2019-05-20T13:03:18.616Z,15.43
2019-05-20T13:05:48.375Z,15.40
2019-05-20T13:08:17.842Z,18.80
2019-05-20T13:10:47.354Z,15.00
2019-05-20T13:13:16.856Z,15.13
2019-05-20T13:15:46.304Z,14.47
2019-05-20T13:18:18.614Z,15.17
2019-05-20T13:20:48.239Z,15.73
2019-05-20T13:23:17.663Z,15.93
2019-05-20T13:25:47.178Z,17.40
2019-05-20T13:28:16.600Z,16.77
2019-05-20T13:30:47.592Z,16.67
2019-05-20T13:33:17.073Z,17.40
2019-05-20T13:35:46.584Z,19.97
2019-05-20T13:38:15.999Z,19.70
2019-05-20T13:40:47.513Z,20.73
2019-05-20T13:43:17.135Z,17.10
2019-05-20T13:45:48.457Z,21.00
2019-05-20T13:48:17.972Z,20.33
2019-05-20T13:50:48.783Z,19.40
2019-05-20T13:53:18.269Z,18.90
2019-05-20T13:55:48.995Z,20.93
2019-05-20T13:58:18.485Z,20.17
2019-05-20T14:00:49.192Z,20.73
2019-05-20T14:03:18.683Z,21.20
2019-05-20T14:05:48.170Z,23.13
2019-05-20T14:08:17.576Z,22.03
2019-05-20T14:11:03.041Z,23.27
2019-05-20T14:13:19.423Z,22.20
2019-05-20T14:15:50.145Z,22.70
2019-05-20T14:18:19.560Z,20.63
2019-05-20T14:20:50.275Z,18.80
2019-05-20T14:23:20.760Z,22.00
2019-05-20T14:25:50.204Z,21.53
2019-05-20T14:28:19.619Z,22.77
2019-05-20T14:30:49.067Z,19.43
2019-05-20T14:33:18.546Z,20.17
2019-05-20T14:35:48.014Z,18.67
2019-05-20T14:38:17.419Z,22.13
2019-05-20T14:40:47.018Z,21.10
2019-05-20T14:43:16.489Z,22.60
2019-05-20T14:45:46.152Z,20.40
2019-05-20T14:48:15.596Z,21.30
2019-05-20T14:50:45.054Z,21.63
2019-05-20T14:53:14.535Z,25.83
2019-05-20T14:55:44.083Z,29.00
2019-05-20T14:58:13.501Z,24.47
2019-05-20T15:00:44.494Z,29.53
2019-05-20T15:03:13.937Z,25.73
2019-05-20T15:05:45.017Z,29.30
2019-05-20T15:08:14.495Z,29.10
2019-05-20T15:10:44.207Z,28.93
2019-05-20T15:13:13.736Z,28.10
2019-05-20T15:15:48.221Z,29.00
2019-05-20T15:18:16.061Z,28.23
2019-05-20T15:20:47.040Z,29.43
2019-05-20T15:23:18.286Z,31.83
2019-05-20T15:25:47.812Z,38.17
2019-05-20T15:28:17.256Z,34.27
2019-05-20T15:30:48.219Z,33.00
2019-05-20T15:33:18.040Z,34.50
2019-05-20T15:35:47.456Z,44.03
2019-05-20T15:38:16.901Z,42.73
2019-05-20T15:40:47.955Z,47.53
2019-05-20T15:43:17.402Z,45.37
2019-05-20T15:45:48.183Z,44.50
2019-05-20T15:48:17.638Z,46.40
2019-05-20T15:50:47.070Z,47.27
2019-05-20T15:53:16.488Z,38.17
2019-05-20T15:55:47.271Z,42.60
2019-05-20T15:58:16.734Z,41.10
2019-05-20T16:00:46.211Z,39.90
2019-05-20T16:03:15.763Z,37.80
2019-05-20T16:05:46.643Z,39.70
2019-05-20T16:08:16.194Z,25.77
2019-05-20T16:10:47.000Z,15.97
2019-05-20T16:13:16.735Z,24.67
2019-05-20T16:15:46.175Z,14.60
2019-05-20T16:18:15.615Z,17.70
2019-05-20T16:20:45.113Z,13.67
2019-05-20T16:23:15.274Z,12.77
2019-05-20T16:25:46.196Z,10.37
2019-05-20T16:28:15.806Z,14.57
2019-05-20T16:30:46.657Z,9.63
2019-05-20T16:33:16.052Z,14.70
2019-05-20T16:35:45.547Z,10.07
2019-05-20T16:38:15.063Z,20.03
2019-05-20T16:40:44.623Z,15.03
2019-05-20T16:43:15.255Z,13.10
2019-05-20T16:45:46.035Z,11.27
2019-05-20T16:48:15.555Z,9.60
2019-05-20T16:50:46.347Z,9.10
2019-05-20T16:53:15.784Z,8.90
2019-05-20T16:55:46.641Z,8.60
2019-05-20T16:58:16.084Z,6.87
2019-05-20T17:00:46.758Z,7.47
2019-05-20T17:03:16.198Z,6.93
2019-05-20T17:05:47.237Z,9.47
2019-05-20T17:08:16.683Z,8.50
2019-05-20T17:10:47.427Z,6.60
2019-05-20T17:13:17.277Z,9.17
2019-05-20T17:15:46.731Z,7.80
2019-05-20T17:18:16.191Z,8.00
2019-05-20T17:20:46.483Z,8.37
2019-05-20T17:23:16.115Z,9.27
2019-05-20T17:25:45.532Z,7.20
2019-05-20T17:28:14.974Z,6.70
2019-05-20T17:30:46.224Z,7.80
2019-05-20T17:33:15.674Z,8.07
2019-05-20T17:35:45.160Z,9.27
2019-05-20T17:38:14.607Z,8.77
2019-05-20T17:40:45.419Z,10.70
2019-05-20T17:43:14.942Z,8.07
2019-05-20T17:45:45.623Z,8.50
2019-05-20T17:48:16.041Z,8.90
2019-05-20T17:50:45.455Z,9.97
2019-05-20T17:53:15.970Z,10.20
2019-05-20T17:55:45.456Z,9.40
2019-05-20T17:58:15.386Z,11.27
2019-05-20T18:00:44.806Z,9.30
2019-05-20T18:03:14.949Z,12.10
2019-05-20T18:05:44.365Z,12.13
2019-05-20T18:08:13.815Z,11.40
2019-05-20T18:10:44.709Z,10.90
2019-05-20T18:13:14.316Z,12.30
2019-05-20T18:15:43.717Z,13.03
2019-05-20T18:18:13.220Z,9.07
2019-05-20T18:20:44.004Z,11.30
2019-05-20T18:23:13.589Z,9.10
2019-05-20T18:25:44.462Z,9.77
2019-05-20T18:28:13.997Z,9.17
2019-05-20T18:30:44.921Z,8.93
2019-05-20T18:33:14.426Z,7.83
2019-05-20T18:35:45.223Z,9.80
2019-05-20T18:38:14.722Z,8.70
2019-05-20T18:40:46.549Z,10.40
2019-05-20T18:43:16.015Z,11.30
2019-05-20T18:45:45.464Z,9.73
2019-05-20T18:48:14.884Z,10.20
2019-05-20T18:50:44.873Z,8.33
2019-05-20T18:53:14.276Z,10.43
2019-05-20T18:55:43.725Z,8.90
2019-05-20T18:58:13.213Z,7.47
2019-05-20T19:00:44.022Z,7.37
2019-05-20T19:03:13.542Z,7.17
2019-05-20T19:05:44.346Z,7.83
2019-05-20T19:08:13.911Z,9.67
2019-05-20T19:10:43.610Z,8.73
2019-05-20T19:13:13.098Z,12.27
2019-05-20T19:15:42.632Z,10.70
2019-05-20T19:18:12.658Z,9.67
2019-05-20T19:20:43.700Z,8.50
2019-05-20T19:23:13.089Z,9.10
2019-05-20T19:25:44.053Z,8.83
2019-05-20T19:28:13.789Z,12.23
2019-05-20T19:30:43.311Z,10.00
2019-05-20T19:33:13.245Z,8.70
2019-05-20T19:35:44.068Z,8.93
2019-05-20T19:38:13.618Z,13.57
2019-05-20T19:40:43.230Z,10.50
2019-05-20T19:43:12.815Z,9.80
2019-05-20T19:45:43.752Z,12.60
2019-05-20T19:48:13.263Z,10.17
2019-05-20T19:50:44.663Z,8.87
2019-05-20T19:53:14.249Z,9.67
2019-05-20T19:55:43.733Z,9.40
2019-05-20T19:58:13.170Z,11.53
2019-05-20T20:00:42.702Z,9.30
2019-05-20T20:03:12.201Z,13.17
2019-05-20T20:05:41.923Z,11.40
2019-05-20T20:08:11.416Z,10.33
2019-05-20T20:10:42.247Z,10.33
2019-05-20T20:13:11.764Z,10.30
2019-05-20T20:15:43.181Z,11.73
2019-05-20T20:18:12.619Z,11.03
2019-05-20T20:20:43.365Z,10.90
2019-05-20T20:23:13.367Z,10.40
2019-05-20T20:25:45.042Z,9.50
2019-05-20T20:28:14.606Z,11.10
2019-05-20T20:30:44.103Z,11.03
2019-05-20T20:33:13.675Z,11.07
2019-05-20T20:35:44.527Z,10.63
2019-05-20T20:38:14.117Z,11.53
2019-05-20T20:40:43.697Z,10.43
2019-05-20T20:43:13.139Z,11.53
2019-05-20T20:45:42.594Z,9.27
2019-05-20T20:48:12.068Z,8.60
2019-05-20T20:50:47.394Z,8.90
2019-05-20T20:53:16.903Z,11.63
2019-05-20T20:55:46.421Z,12.47
2019-05-20T20:58:15.977Z,8.70
2019-05-20T21:00:46.887Z,9.10
2019-05-20T21:03:16.368Z,8.80
2019-05-20T21:05:47.802Z,9.00
2019-05-20T21:08:17.328Z,9.37
2019-05-20T21:10:46.846Z,12.90
2019-05-20T21:13:16.345Z,14.03
2019-05-20T21:15:45.847Z,14.30
2019-05-20T21:18:15.267Z,13.50
2019-05-20T21:20:46.091Z,13.90
2019-05-20T21:23:15.501Z,16.00
2019-05-20T21:25:45.014Z,13.10
2019-05-20T21:28:14.494Z,15.37
2019-05-20T21:30:44.016Z,13.70
2019-05-20T21:33:13.495Z,17.80
2019-05-20T21:35:45.359Z,18.90
2019-05-20T21:38:14.026Z,19.47
2019-05-20T21:40:43.547Z,17.57
2019-05-20T21:43:12.976Z,14.70
2019-05-20T21:45:43.968Z,16.03
2019-05-20T21:48:13.387Z,18.20
2019-05-20T21:50:42.832Z,15.13
2019-05-20T21:53:12.256Z,16.80
2019-05-20T21:55:41.698Z,15.47
2019-05-20T21:58:11.113Z,18.43
2019-05-20T22:00:48.262Z,18.67
2019-05-20T22:03:24.506Z,21.20
2019-05-20T22:05:49.095Z,18.30
2019-05-20T22:08:18.523Z,18.00
2019-05-20T22:10:49.342Z,17.53
2019-05-20T22:13:18.827Z,19.03
2019-05-20T22:15:48.361Z,18.77
2019-05-20T22:18:17.840Z,19.87
2019-05-20T22:20:47.367Z,20.10
2019-05-20T22:23:27.516Z,21.10
2019-05-20T22:25:57.049Z,21.87
2019-05-20T22:28:26.627Z,23.30
2019-05-20T22:30:56.261Z,27.20
2019-05-20T22:33:40.521Z,23.60
2019-05-20T22:35:58.219Z,22.80
2019-05-20T22:38:27.639Z,25.73
2019-05-20T22:40:57.091Z,22.13
2019-05-20T22:43:26.508Z,26.33
2019-05-20T22:45:57.499Z,22.27
2019-05-20T22:48:26.927Z,25.13
2019-05-20T22:50:56.370Z,26.97
2019-05-20T22:53:25.793Z,21.93
2019-05-20T22:55:56.805Z,22.70
2019-05-20T22:58:27.353Z,19.20
2019-05-20T23:00:58.156Z,22.63
2019-05-20T23:03:27.567Z,23.23
2019-05-20T23:05:57.066Z,24.50
2019-05-20T23:08:26.531Z,22.60
2019-05-20T23:10:57.504Z,22.83
2019-05-20T23:13:26.987Z,23.93
2019-05-20T23:15:56.435Z,24.00
2019-05-20T23:18:25.851Z,24.13
2019-05-20T23:20:56.746Z,21.67
2019-05-20T23:23:26.163Z,20.40
2019-05-20T23:25:57.074Z,20.67
2019-05-20T23:28:26.589Z,20.40
2019-05-20T23:30:56.094Z,19.83
2019-05-20T23:33:25.588Z,25.30
2019-05-20T23:35:55.201Z,25.07
2019-05-20T23:38:24.615Z,25.00
2019-05-20T23:40:55.435Z,22.10
2019-05-20T23:43:24.851Z,21.80
2019-05-20T23:45:55.778Z,26.63
2019-05-20T23:48:27.050Z,25.27
2019-05-20T23:50:56.938Z,21.20
2019-05-20T23:53:26.344Z,21.40
2019-05-20T23:55:55.794Z,18.97
2019-05-20T23:58:25.254Z,25.43
